sensor_id;sensor_type;location;lat;lon;timestamp;temperature;humidity
68813;DHT22;55808;48.112;11.552;2023-03-31T00:00:09;7.40;99.90
68813;DHT22;55808;48.112;11.552;2023-03-31T00:02:36;7.40;99.90
68813;DHT22;55808;48.112;11.552;2023-03-31T00:05:02;7.40;99.90
68813;DHT22;55808;48.112;11.552;2023-03-31T00:07:27;7.40;99.90
68813;DHT22;55808;48.112;11.552;2023-03-31T00:09:53;7.40;99.90
68813;DHT22;55808;48.112;11.552;2023-03-31T00:12:19;7.40;99.90
68813;DHT22;55808;48.112;11.552;2023-03-31T00:14:45;7.40;99.90
68813;DHT22;55808;48.112;11.552;2023-03-31T00:17:11;7.40;99.90
68813;DHT22;55808;48.112;11.552;2023-03-31T00:19:36;7.50;99.90
68813;DHT22;55808;48.112;11.552;2023-03-31T00:22:04;7.40;99.90
68813;DHT22;55808;48.112;11.552;2023-03-31T00:24:30;7.30;99.90
68813;DHT22;55808;48.112;11.552;2023-03-31T00:27:03;7.40;99.90
68813;DHT22;55808;48.112;11.552;2023-03-31T00:29:29;7.40;99.90
68813;DHT22;55808;48.112;11.552;2023-03-31T00:31:55;7.30;99.90
68813;DHT22;55808;48.112;11.552;2023-03-31T00:34:24;7.40;99.90
68813;DHT22;55808;48.112;11.552;2023-03-31T00:36:49;7.40;99.90
68813;DHT22;55808;48.112;11.552;2023-03-31T00:39:16;7.40;99.90
68813;DHT22;55808;48.112;11.552;2023-03-31T00:41:42;7.40;99.90
68813;DHT22;55808;48.112;11.552;2023-03-31T00:44:10;7.40;99.90
68813;DHT22;55808;48.112;11.552;2023-03-31T00:46:49;7.50;99.90
68813;DHT22;55808;48.112;11.552;2023-03-31T00:49:28;7.40;99.90
68813;DHT22;55808;48.112;11.552;2023-03-31T00:52:02;7.50;99.90
68813;DHT22;55808;48.112;11.552;2023-03-31T00:54:29;7.50;99.90
68813;DHT22;55808;48.112;11.552;2023-03-31T00:56:57;7.40;99.90
68813;DHT22;55808;48.112;11.552;2023-03-31T00:59:24;7.50;99.90
68813;DHT22;55808;48.112;11.552;2023-03-31T01:01:52;7.40;99.90
68813;DHT22;55808;48.112;11.552;2023-03-31T01:04:18;7.40;99.90
68813;DHT22;55808;48.112;11.552;2023-03-31T01:06:56;7.50;99.90
68813;DHT22;55808;48.112;11.552;2023-03-31T01:09:25;7.50;99.90
68813;DHT22;55808;48.112;11.552;2023-03-31T01:11:56;7.60;99.90
68813;DHT22;55808;48.112;11.552;2023-03-31T01:14:22;7.60;99.90
68813;DHT22;55808;48.112;11.552;2023-03-31T01:16:47;7.60;99.90
68813;DHT22;55808;48.112;11.552;2023-03-31T01:19:18;7.60;99.90
68813;DHT22;55808;48.112;11.552;2023-03-31T01:21:58;7.60;99.90
68813;DHT22;55808;48.112;11.552;2023-03-31T01:24:55;7.60;99.90
68813;DHT22;55808;48.112;11.552;2023-03-31T01:38:13;7.50;99.90
68813;DHT22;55808;48.112;11.552;2023-03-31T01:48:21;7.50;99.90
68813;DHT22;55808;48.112;11.552;2023-03-31T01:50:55;7.50;99.90
68813;DHT22;55808;48.112;11.552;2023-03-31T01:53:30;7.50;99.90
68813;DHT22;55808;48.112;11.552;2023-03-31T01:58:29;7.60;99.90
68813;DHT22;55808;48.112;11.552;2023-03-31T02:00:58;7.60;99.90
68813;DHT22;55808;48.112;11.552;2023-03-31T02:03:27;7.70;99.90
68813;DHT22;55808;48.112;11.552;2023-03-31T02:05:55;7.50;99.90
68813;DHT22;55808;48.112;11.552;2023-03-31T02:08:35;7.50;99.90
68813;DHT22;55808;48.112;11.552;2023-03-31T02:11:02;7.50;99.90
68813;DHT22;55808;48.112;11.552;2023-03-31T02:13:28;7.50;99.90
68813;DHT22;55808;48.112;11.552;2023-03-31T02:15:55;7.50;99.90
68813;DHT22;55808;48.112;11.552;2023-03-31T02:18:22;7.50;99.90
68813;DHT22;55808;48.112;11.552;2023-03-31T02:20:50;7.50;99.90
68813;DHT22;55808;48.112;11.552;2023-03-31T02:23:18;7.60;99.90
68813;DHT22;55808;48.112;11.552;2023-03-31T02:25:49;7.60;99.90
68813;DHT22;55808;48.112;11.552;2023-03-31T02:28:25;7.60;99.90
68813;DHT22;55808;48.112;11.552;2023-03-31T02:33:36;7.60;99.90
68813;DHT22;55808;48.112;11.552;2023-03-31T02:36:03;7.70;99.90
68813;DHT22;55808;48.112;11.552;2023-03-31T02:38:34;7.60;99.90
68813;DHT22;55808;48.112;11.552;2023-03-31T02:41:01;7.60;99.90
68813;DHT22;55808;48.112;11.552;2023-03-31T02:43:26;7.70;99.90
68813;DHT22;55808;48.112;11.552;2023-03-31T02:45:52;7.70;99.90
68813;DHT22;55808;48.112;11.552;2023-03-31T02:48:19;7.70;99.90
68813;DHT22;55808;48.112;11.552;2023-03-31T02:53:33;7.70;99.90
68813;DHT22;55808;48.112;11.552;2023-03-31T03:03:59;7.40;99.90
68813;DHT22;55808;48.112;11.552;2023-03-31T03:11:50;7.50;99.90
68813;DHT22;55808;48.112;11.552;2023-03-31T03:14:22;7.60;99.90
68813;DHT22;55808;48.112;11.552;2023-03-31T03:16:52;7.50;99.90
68813;DHT22;55808;48.112;11.552;2023-03-31T03:19:21;7.50;99.90
68813;DHT22;55808;48.112;11.552;2023-03-31T03:21:47;7.50;99.90
68813;DHT22;55808;48.112;11.552;2023-03-31T03:24:14;7.40;99.90
68813;DHT22;55808;48.112;11.552;2023-03-31T03:26:39;7.40;99.90
68813;DHT22;55808;48.112;11.552;2023-03-31T03:29:05;7.30;99.90
68813;DHT22;55808;48.112;11.552;2023-03-31T03:31:31;7.30;99.90
68813;DHT22;55808;48.112;11.552;2023-03-31T03:33:57;7.30;99.90
68813;DHT22;55808;48.112;11.552;2023-03-31T03:36:23;7.30;99.90
68813;DHT22;55808;48.112;11.552;2023-03-31T03:38:48;7.40;99.90
68813;DHT22;55808;48.112;11.552;2023-03-31T03:41:15;7.40;99.90
68813;DHT22;55808;48.112;11.552;2023-03-31T03:43:41;7.40;99.90
68813;DHT22;55808;48.112;11.552;2023-03-31T03:46:06;7.50;99.90
68813;DHT22;55808;48.112;11.552;2023-03-31T03:48:32;7.40;99.90
68813;DHT22;55808;48.112;11.552;2023-03-31T03:51:00;7.40;99.90
68813;DHT22;55808;48.112;11.552;2023-03-31T03:53:26;7.40;99.90
68813;DHT22;55808;48.112;11.552;2023-03-31T03:55:52;7.60;99.90
68813;DHT22;55808;48.112;11.552;2023-03-31T03:58:17;7.60;99.90
68813;DHT22;55808;48.112;11.552;2023-03-31T04:00:44;7.60;99.90
68813;DHT22;55808;48.112;11.552;2023-03-31T04:03:10;7.60;99.90
68813;DHT22;55808;48.112;11.552;2023-03-31T04:05:36;7.60;99.90
68813;DHT22;55808;48.112;11.552;2023-03-31T04:08:01;7.60;99.90
68813;DHT22;55808;48.112;11.552;2023-03-31T04:10:27;7.60;99.90
68813;DHT22;55808;48.112;11.552;2023-03-31T04:12:53;7.70;99.90
68813;DHT22;55808;48.112;11.552;2023-03-31T04:15:18;7.70;99.90
68813;DHT22;55808;48.112;11.552;2023-03-31T04:17:44;7.80;99.90
68813;DHT22;55808;48.112;11.552;2023-03-31T04:20:15;7.80;99.90
68813;DHT22;55808;48.112;11.552;2023-03-31T04:22:40;7.80;99.90
68813;DHT22;55808;48.112;11.552;2023-03-31T04:25:07;7.80;99.90
68813;DHT22;55808;48.112;11.552;2023-03-31T04:27:39;7.80;99.90
68813;DHT22;55808;48.112;11.552;2023-03-31T04:30:13;7.90;99.90
68813;DHT22;55808;48.112;11.552;2023-03-31T04:32:50;7.80;99.90
68813;DHT22;55808;48.112;11.552;2023-03-31T04:35:18;7.80;99.90
68813;DHT22;55808;48.112;11.552;2023-03-31T04:37:48;7.90;99.90
68813;DHT22;55808;48.112;11.552;2023-03-31T04:40:14;7.80;99.90
68813;DHT22;55808;48.112;11.552;2023-03-31T04:42:40;7.70;99.90
68813;DHT22;55808;48.112;11.552;2023-03-31T04:45:06;7.80;99.90
68813;DHT22;55808;48.112;11.552;2023-03-31T04:47:32;7.80;99.90
68813;DHT22;55808;48.112;11.552;2023-03-31T04:49:57;7.80;99.90
68813;DHT22;55808;48.112;11.552;2023-03-31T04:52:23;7.70;99.90
68813;DHT22;55808;48.112;11.552;2023-03-31T04:54:48;7.70;99.90
68813;DHT22;55808;48.112;11.552;2023-03-31T04:57:14;7.70;99.90
68813;DHT22;55808;48.112;11.552;2023-03-31T04:59:39;7.70;99.90
68813;DHT22;55808;48.112;11.552;2023-03-31T05:02:05;7.60;99.90
68813;DHT22;55808;48.112;11.552;2023-03-31T05:04:30;7.60;99.90
68813;DHT22;55808;48.112;11.552;2023-03-31T05:06:56;7.60;99.90
68813;DHT22;55808;48.112;11.552;2023-03-31T05:09:21;7.60;99.90
68813;DHT22;55808;48.112;11.552;2023-03-31T05:11:47;7.60;99.90
68813;DHT22;55808;48.112;11.552;2023-03-31T05:14:13;7.60;99.90
68813;DHT22;55808;48.112;11.552;2023-03-31T05:16:39;7.60;99.90
68813;DHT22;55808;48.112;11.552;2023-03-31T05:19:06;7.60;99.90
68813;DHT22;55808;48.112;11.552;2023-03-31T05:21:32;7.60;99.90
68813;DHT22;55808;48.112;11.552;2023-03-31T05:23:58;7.60;99.90
68813;DHT22;55808;48.112;11.552;2023-03-31T05:26:25;7.50;99.90
68813;DHT22;55808;48.112;11.552;2023-03-31T05:28:51;7.50;99.90
68813;DHT22;55808;48.112;11.552;2023-03-31T05:31:17;7.70;99.90
68813;DHT22;55808;48.112;11.552;2023-03-31T05:33:42;7.60;99.90
68813;DHT22;55808;48.112;11.552;2023-03-31T05:36:08;7.70;99.90
68813;DHT22;55808;48.112;11.552;2023-03-31T05:38:35;7.60;99.90
68813;DHT22;55808;48.112;11.552;2023-03-31T05:41:00;7.60;99.90
68813;DHT22;55808;48.112;11.552;2023-03-31T05:43:26;7.60;99.90
68813;DHT22;55808;48.112;11.552;2023-03-31T05:45:51;7.70;99.90
68813;DHT22;55808;48.112;11.552;2023-03-31T05:48:17;7.80;99.90
68813;DHT22;55808;48.112;11.552;2023-03-31T05:50:42;7.70;99.90
68813;DHT22;55808;48.112;11.552;2023-03-31T05:53:08;7.70;99.90
68813;DHT22;55808;48.112;11.552;2023-03-31T05:55:37;7.80;99.90
68813;DHT22;55808;48.112;11.552;2023-03-31T05:58:02;7.80;99.90
68813;DHT22;55808;48.112;11.552;2023-03-31T06:00:28;7.80;99.90
68813;DHT22;55808;48.112;11.552;2023-03-31T06:02:53;7.80;99.90
68813;DHT22;55808;48.112;11.552;2023-03-31T06:05:19;7.80;99.90
68813;DHT22;55808;48.112;11.552;2023-03-31T06:07:44;7.90;99.90
68813;DHT22;55808;48.112;11.552;2023-03-31T06:10:10;8.00;99.90
68813;DHT22;55808;48.112;11.552;2023-03-31T06:12:36;8.10;99.90
68813;DHT22;55808;48.112;11.552;2023-03-31T06:15:02;8.00;99.90
68813;DHT22;55808;48.112;11.552;2023-03-31T06:17:28;8.00;99.90
68813;DHT22;55808;48.112;11.552;2023-03-31T06:19:53;8.10;99.90
68813;DHT22;55808;48.112;11.552;2023-03-31T06:22:19;8.10;99.90
68813;DHT22;55808;48.112;11.552;2023-03-31T06:24:45;8.10;99.90
68813;DHT22;55808;48.112;11.552;2023-03-31T06:27:10;8.20;99.90
68813;DHT22;55808;48.112;11.552;2023-03-31T06:29:36;8.20;99.90
68813;DHT22;55808;48.112;11.552;2023-03-31T06:32:01;8.20;99.90
68813;DHT22;55808;48.112;11.552;2023-03-31T06:34:29;8.20;99.90
68813;DHT22;55808;48.112;11.552;2023-03-31T06:36:57;8.20;99.90
68813;DHT22;55808;48.112;11.552;2023-03-31T06:39:25;8.30;99.90
68813;DHT22;55808;48.112;11.552;2023-03-31T06:41:51;8.30;99.90
68813;DHT22;55808;48.112;11.552;2023-03-31T06:44:16;8.40;99.90
68813;DHT22;55808;48.112;11.552;2023-03-31T06:46:43;8.40;99.90
68813;DHT22;55808;48.112;11.552;2023-03-31T06:49:09;8.40;99.90
68813;DHT22;55808;48.112;11.552;2023-03-31T06:51:35;8.50;99.90
68813;DHT22;55808;48.112;11.552;2023-03-31T06:54:00;8.50;99.90
68813;DHT22;55808;48.112;11.552;2023-03-31T06:56:26;8.50;99.90
68813;DHT22;55808;48.112;11.552;2023-03-31T06:58:52;8.50;99.90
68813;DHT22;55808;48.112;11.552;2023-03-31T07:01:17;8.50;99.90
68813;DHT22;55808;48.112;11.552;2023-03-31T07:03:43;8.50;99.90
68813;DHT22;55808;48.112;11.552;2023-03-31T07:06:09;8.40;99.90
68813;DHT22;55808;48.112;11.552;2023-03-31T07:08:34;8.40;99.90
68813;DHT22;55808;48.112;11.552;2023-03-31T07:11:00;8.30;99.90
68813;DHT22;55808;48.112;11.552;2023-03-31T07:13:26;8.30;99.90
68813;DHT22;55808;48.112;11.552;2023-03-31T07:15:52;8.30;99.90
68813;DHT22;55808;48.112;11.552;2023-03-31T07:18:18;8.20;99.90
68813;DHT22;55808;48.112;11.552;2023-03-31T07:20:46;8.20;99.90
68813;DHT22;55808;48.112;11.552;2023-03-31T07:23:11;8.20;99.90
68813;DHT22;55808;48.112;11.552;2023-03-31T07:25:37;8.20;99.90
68813;DHT22;55808;48.112;11.552;2023-03-31T07:28:03;8.20;99.90
68813;DHT22;55808;48.112;11.552;2023-03-31T07:30:28;8.20;99.90
68813;DHT22;55808;48.112;11.552;2023-03-31T07:32:54;8.20;99.90
68813;DHT22;55808;48.112;11.552;2023-03-31T07:35:20;8.20;99.90
68813;DHT22;55808;48.112;11.552;2023-03-31T07:37:46;8.20;99.90
68813;DHT22;55808;48.112;11.552;2023-03-31T07:40:13;8.20;99.90
68813;DHT22;55808;48.112;11.552;2023-03-31T07:42:40;8.20;99.90
68813;DHT22;55808;48.112;11.552;2023-03-31T07:45:06;8.30;99.90
68813;DHT22;55808;48.112;11.552;2023-03-31T07:47:32;8.40;99.90
68813;DHT22;55808;48.112;11.552;2023-03-31T07:49:57;8.40;99.90
68813;DHT22;55808;48.112;11.552;2023-03-31T07:52:23;8.40;99.90
68813;DHT22;55808;48.112;11.552;2023-03-31T07:54:48;8.40;99.90
68813;DHT22;55808;48.112;11.552;2023-03-31T07:57:14;8.50;99.90
68813;DHT22;55808;48.112;11.552;2023-03-31T07:59:41;8.40;99.90
68813;DHT22;55808;48.112;11.552;2023-03-31T08:02:09;8.50;99.90
68813;DHT22;55808;48.112;11.552;2023-03-31T08:04:35;8.60;99.90
68813;DHT22;55808;48.112;11.552;2023-03-31T08:07:00;8.70;99.90
68813;DHT22;55808;48.112;11.552;2023-03-31T08:09:26;8.80;99.90
68813;DHT22;55808;48.112;11.552;2023-03-31T08:11:51;8.90;99.90
68813;DHT22;55808;48.112;11.552;2023-03-31T08:14:17;8.90;99.90
68813;DHT22;55808;48.112;11.552;2023-03-31T08:18:18;8.80;99.90
68813;DHT22;55808;48.112;11.552;2023-03-31T08:20:44;8.80;99.90
68813;DHT22;55808;48.112;11.552;2023-03-31T08:23:11;8.70;99.90
68813;DHT22;55808;48.112;11.552;2023-03-31T08:25:40;8.70;99.90
68813;DHT22;55808;48.112;11.552;2023-03-31T08:28:09;8.60;99.90
68813;DHT22;55808;48.112;11.552;2023-03-31T08:30:38;8.60;99.90
68813;DHT22;55808;48.112;11.552;2023-03-31T08:33:04;8.60;99.90
68813;DHT22;55808;48.112;11.552;2023-03-31T08:35:30;8.60;99.90
68813;DHT22;55808;48.112;11.552;2023-03-31T08:37:55;8.70;99.90
68813;DHT22;55808;48.112;11.552;2023-03-31T08:40:22;8.70;99.90
68813;DHT22;55808;48.112;11.552;2023-03-31T08:42:49;8.70;99.90
68813;DHT22;55808;48.112;11.552;2023-03-31T08:45:17;8.60;99.90
68813;DHT22;55808;48.112;11.552;2023-03-31T08:47:45;8.60;99.90
68813;DHT22;55808;48.112;11.552;2023-03-31T08:50:13;8.50;99.90
68813;DHT22;55808;48.112;11.552;2023-03-31T08:52:41;8.50;99.90
68813;DHT22;55808;48.112;11.552;2023-03-31T08:55:11;8.40;99.90
68813;DHT22;55808;48.112;11.552;2023-03-31T08:57:53;8.40;99.90
68813;DHT22;55808;48.112;11.552;2023-03-31T09:00:20;8.60;99.90
68813;DHT22;55808;48.112;11.552;2023-03-31T09:05:28;9.10;99.90
68813;DHT22;55808;48.112;11.552;2023-03-31T09:10:49;9.00;99.90
68813;DHT22;55808;48.112;11.552;2023-03-31T09:13:20;8.90;99.90
68813;DHT22;55808;48.112;11.552;2023-03-31T09:20:56;8.80;99.90
68813;DHT22;55808;48.112;11.552;2023-03-31T09:23:29;9.00;99.90
68813;DHT22;55808;48.112;11.552;2023-03-31T09:25:56;9.20;99.90
68813;DHT22;55808;48.112;11.552;2023-03-31T09:28:27;9.20;99.90
68813;DHT22;55808;48.112;11.552;2023-03-31T09:30:54;9.20;99.90
68813;DHT22;55808;48.112;11.552;2023-03-31T09:33:26;9.20;99.90
68813;DHT22;55808;48.112;11.552;2023-03-31T09:35:59;9.30;99.90
68813;DHT22;55808;48.112;11.552;2023-03-31T09:38:25;9.70;99.90
68813;DHT22;55808;48.112;11.552;2023-03-31T09:40:58;9.90;99.90
68813;DHT22;55808;48.112;11.552;2023-03-31T09:43:26;10.10;99.90
68813;DHT22;55808;48.112;11.552;2023-03-31T09:45:52;10.00;99.90
68813;DHT22;55808;48.112;11.552;2023-03-31T09:48:19;10.10;99.90
68813;DHT22;55808;48.112;11.552;2023-03-31T09:50:49;10.00;99.90
68813;DHT22;55808;48.112;11.552;2023-03-31T09:53:31;10.10;99.90
68813;DHT22;55808;48.112;11.552;2023-03-31T09:56:00;10.20;99.90
68813;DHT22;55808;48.112;11.552;2023-03-31T09:58:25;10.30;99.90
68813;DHT22;55808;48.112;11.552;2023-03-31T10:00:58;10.30;99.90
68813;DHT22;55808;48.112;11.552;2023-03-31T10:03:24;10.40;99.90
68813;DHT22;55808;48.112;11.552;2023-03-31T10:05:56;10.60;99.90
68813;DHT22;55808;48.112;11.552;2023-03-31T10:10:50;10.60;99.90
68813;DHT22;55808;48.112;11.552;2023-03-31T10:13:16;10.60;99.90
68813;DHT22;55808;48.112;11.552;2023-03-31T10:15:43;10.60;99.90
68813;DHT22;55808;48.112;11.552;2023-03-31T10:18:15;10.90;99.90
68813;DHT22;55808;48.112;11.552;2023-03-31T10:21:00;11.00;99.90
68813;DHT22;55808;48.112;11.552;2023-03-31T10:23:28;11.00;99.90
68813;DHT22;55808;48.112;11.552;2023-03-31T10:25:54;11.10;99.90
68813;DHT22;55808;48.112;11.552;2023-03-31T10:28:23;10.90;99.90
68813;DHT22;55808;48.112;11.552;2023-03-31T10:30:50;10.80;99.90
68813;DHT22;55808;48.112;11.552;2023-03-31T10:33:22;10.80;99.90
68813;DHT22;55808;48.112;11.552;2023-03-31T10:35:53;10.90;99.90
68813;DHT22;55808;48.112;11.552;2023-03-31T10:38:24;11.10;99.90
68813;DHT22;55808;48.112;11.552;2023-03-31T10:40:53;11.40;99.90
68813;DHT22;55808;48.112;11.552;2023-03-31T10:43:20;11.60;99.90
68813;DHT22;55808;48.112;11.552;2023-03-31T10:45:50;11.90;99.90
68813;DHT22;55808;48.112;11.552;2023-03-31T10:48:17;11.60;99.90
68813;DHT22;55808;48.112;11.552;2023-03-31T10:50:43;11.70;99.90
68813;DHT22;55808;48.112;11.552;2023-03-31T10:53:12;11.80;99.90
68813;DHT22;55808;48.112;11.552;2023-03-31T10:55:41;11.60;99.90
68813;DHT22;55808;48.112;11.552;2023-03-31T11:00:49;11.50;99.90
68813;DHT22;55808;48.112;11.552;2023-03-31T11:06:01;11.50;99.90
68813;DHT22;55808;48.112;11.552;2023-03-31T11:16:23;11.30;99.90
68813;DHT22;55808;48.112;11.552;2023-03-31T11:21:32;11.00;99.90
68813;DHT22;55808;48.112;11.552;2023-03-31T11:26:53;10.30;99.90
68813;DHT22;55808;48.112;11.552;2023-03-31T11:29:24;9.10;99.90
68813;DHT22;55808;48.112;11.552;2023-03-31T11:32:02;8.20;99.90
68813;DHT22;55808;48.112;11.552;2023-03-31T11:37:27;8.00;99.90
68813;DHT22;55808;48.112;11.552;2023-03-31T11:42:36;8.00;99.90
68813;DHT22;55808;48.112;11.552;2023-03-31T11:45:17;8.00;99.90
68813;DHT22;55808;48.112;11.552;2023-03-31T11:47:43;8.10;99.90
68813;DHT22;55808;48.112;11.552;2023-03-31T11:50:11;8.30;99.90
68813;DHT22;55808;48.112;11.552;2023-03-31T11:52:40;8.20;99.90
68813;DHT22;55808;48.112;11.552;2023-03-31T11:55:14;8.20;99.90
68813;DHT22;55808;48.112;11.552;2023-03-31T11:57:41;8.40;99.90
68813;DHT22;55808;48.112;11.552;2023-03-31T12:02:56;8.70;99.90
68813;DHT22;55808;48.112;11.552;2023-03-31T12:05:25;8.90;99.90
68813;DHT22;55808;48.112;11.552;2023-03-31T12:07:53;9.10;99.90
68813;DHT22;55808;48.112;11.552;2023-03-31T12:10:33;9.80;99.90
68813;DHT22;55808;48.112;11.552;2023-03-31T12:15:32;10.40;99.90
68813;DHT22;55808;48.112;11.552;2023-03-31T12:17:59;11.30;99.90
68813;DHT22;55808;48.112;11.552;2023-03-31T12:20:33;12.10;99.90
68813;DHT22;55808;48.112;11.552;2023-03-31T12:23:02;11.30;99.90
68813;DHT22;55808;48.112;11.552;2023-03-31T12:28:15;10.10;99.90
68813;DHT22;55808;48.112;11.552;2023-03-31T12:30:41;10.00;99.90
68813;DHT22;55808;48.112;11.552;2023-03-31T12:33:24;10.50;99.90
68813;DHT22;55808;48.112;11.552;2023-03-31T12:39:27;10.50;99.90
68813;DHT22;55808;48.112;11.552;2023-03-31T12:50:15;9.80;99.90
68813;DHT22;55808;48.112;11.552;2023-03-31T12:52:46;9.80;99.90
68813;DHT22;55808;48.112;11.552;2023-03-31T12:55:22;10.00;99.90
68813;DHT22;55808;48.112;11.552;2023-03-31T12:58:15;10.00;99.90
68813;DHT22;55808;48.112;11.552;2023-03-31T13:00:43;10.20;99.90
68813;DHT22;55808;48.112;11.552;2023-03-31T13:05:58;10.70;99.90
68813;DHT22;55808;48.112;11.552;2023-03-31T13:11:16;10.30;99.90
68813;DHT22;55808;48.112;11.552;2023-03-31T13:13:50;10.00;99.90
68813;DHT22;55808;48.112;11.552;2023-03-31T13:16:18;9.90;99.90
68813;DHT22;55808;48.112;11.552;2023-03-31T13:18:48;9.70;99.90
68813;DHT22;55808;48.112;11.552;2023-03-31T13:21:14;9.90;99.90
68813;DHT22;55808;48.112;11.552;2023-03-31T13:23:40;9.50;99.90
68813;DHT22;55808;48.112;11.552;2023-03-31T13:26:55;9.50;99.90
68813;DHT22;55808;48.112;11.552;2023-03-31T13:34:24;10.00;99.90
68813;DHT22;55808;48.112;11.552;2023-03-31T13:52:30;12.60;99.90
68813;DHT22;55808;48.112;11.552;2023-03-31T14:07:48;11.70;99.90
68813;DHT22;55808;48.112;11.552;2023-03-31T14:10:27;11.60;99.90
68813;DHT22;55808;48.112;11.552;2023-03-31T14:13:03;11.40;99.90
68813;DHT22;55808;48.112;11.552;2023-03-31T14:15:29;11.40;99.90
68813;DHT22;55808;48.112;11.552;2023-03-31T14:17:55;11.30;99.90
68813;DHT22;55808;48.112;11.552;2023-03-31T14:20:26;11.20;99.90
68813;DHT22;55808;48.112;11.552;2023-03-31T14:35:27;11.00;99.90
68813;DHT22;55808;48.112;11.552;2023-03-31T14:37:55;10.90;99.90
68813;DHT22;55808;48.112;11.552;2023-03-31T14:40:21;10.60;99.90
68813;DHT22;55808;48.112;11.552;2023-03-31T14:42:47;10.00;99.90
68813;DHT22;55808;48.112;11.552;2023-03-31T14:45:20;9.40;99.90
68813;DHT22;55808;48.112;11.552;2023-03-31T14:47:56;8.50;99.90
68813;DHT22;55808;48.112;11.552;2023-03-31T14:50:26;8.70;99.90
68813;DHT22;55808;48.112;11.552;2023-03-31T14:52:52;8.90;99.90
68813;DHT22;55808;48.112;11.552;2023-03-31T14:55:20;9.00;99.90
68813;DHT22;55808;48.112;11.552;2023-03-31T14:57:47;9.10;99.90
68813;DHT22;55808;48.112;11.552;2023-03-31T15:00:14;9.10;99.90
68813;DHT22;55808;48.112;11.552;2023-03-31T15:02:42;9.00;99.90
68813;DHT22;55808;48.112;11.552;2023-03-31T15:05:12;9.20;99.90
68813;DHT22;55808;48.112;11.552;2023-03-31T15:07:39;9.60;99.90
68813;DHT22;55808;48.112;11.552;2023-03-31T15:10:05;10.60;99.90
68813;DHT22;55808;48.112;11.552;2023-03-31T15:12:31;11.00;99.90
68813;DHT22;55808;48.112;11.552;2023-03-31T15:14:59;10.90;99.90
68813;DHT22;55808;48.112;11.552;2023-03-31T15:17:28;10.80;99.90
68813;DHT22;55808;48.112;11.552;2023-03-31T15:19:54;11.00;99.90
68813;DHT22;55808;48.112;11.552;2023-03-31T15:22:21;11.00;99.90
68813;DHT22;55808;48.112;11.552;2023-03-31T15:24:47;11.00;99.90
68813;DHT22;55808;48.112;11.552;2023-03-31T15:29:48;11.70;99.90
68813;DHT22;55808;48.112;11.552;2023-03-31T15:32:34;11.50;99.90
68813;DHT22;55808;48.112;11.552;2023-03-31T15:35:00;11.40;99.90
68813;DHT22;55808;48.112;11.552;2023-03-31T15:37:37;11.40;99.90
68813;DHT22;55808;48.112;11.552;2023-03-31T15:40:08;11.00;99.90
68813;DHT22;55808;48.112;11.552;2023-03-31T15:42:35;10.90;99.90
68813;DHT22;55808;48.112;11.552;2023-03-31T15:47:51;10.80;99.90
68813;DHT22;55808;48.112;11.552;2023-03-31T15:50:20;10.80;99.90
68813;DHT22;55808;48.112;11.552;2023-03-31T15:52:47;10.90;99.90
68813;DHT22;55808;48.112;11.552;2023-03-31T15:55:58;10.90;99.90
68813;DHT22;55808;48.112;11.552;2023-03-31T15:58:04;10.90;99.90
68813;DHT22;55808;48.112;11.552;2023-03-31T16:02:56;10.90;99.90
68813;DHT22;55808;48.112;11.552;2023-03-31T16:08:12;11.00;99.90
68813;DHT22;55808;48.112;11.552;2023-03-31T16:10:38;11.40;99.90
68813;DHT22;55808;48.112;11.552;2023-03-31T16:13:05;11.60;99.90
68813;DHT22;55808;48.112;11.552;2023-03-31T16:15:33;11.60;99.90
68813;DHT22;55808;48.112;11.552;2023-03-31T16:18:04;11.30;99.90
68813;DHT22;55808;48.112;11.552;2023-03-31T16:20:34;11.20;99.90
68813;DHT22;55808;48.112;11.552;2023-03-31T16:23:10;11.50;99.90
68813;DHT22;55808;48.112;11.552;2023-03-31T16:25:38;11.60;99.90
68813;DHT22;55808;48.112;11.552;2023-03-31T16:28:04;11.70;99.90
68813;DHT22;55808;48.112;11.552;2023-03-31T16:30:39;11.80;99.90
68813;DHT22;55808;48.112;11.552;2023-03-31T16:35:35;11.50;99.90
68813;DHT22;55808;48.112;11.552;2023-03-31T16:38:01;11.30;99.90
68813;DHT22;55808;48.112;11.552;2023-03-31T16:40:35;11.20;99.90
68813;DHT22;55808;48.112;11.552;2023-03-31T16:45:46;11.00;99.90
68813;DHT22;55808;48.112;11.552;2023-03-31T16:48:13;10.90;99.90
68813;DHT22;55808;48.112;11.552;2023-03-31T16:50:38;10.90;99.90
68813;DHT22;55808;48.112;11.552;2023-03-31T16:53:05;10.80;99.90
68813;DHT22;55808;48.112;11.552;2023-03-31T16:55:31;10.80;99.90
68813;DHT22;55808;48.112;11.552;2023-03-31T16:57:57;10.70;99.90
68813;DHT22;55808;48.112;11.552;2023-03-31T17:00:24;9.40;99.90
68813;DHT22;55808;48.112;11.552;2023-03-31T17:02:49;8.00;99.90
68813;DHT22;55808;48.112;11.552;2023-03-31T17:05:15;7.60;99.90
68813;DHT22;55808;48.112;11.552;2023-03-31T17:07:40;7.60;99.90
68813;DHT22;55808;48.112;11.552;2023-03-31T17:10:06;7.30;99.90
68813;DHT22;55808;48.112;11.552;2023-03-31T17:12:32;7.30;99.90
68813;DHT22;55808;48.112;11.552;2023-03-31T17:14:57;7.20;99.90
68813;DHT22;55808;48.112;11.552;2023-03-31T17:17:23;7.00;99.90
68813;DHT22;55808;48.112;11.552;2023-03-31T17:19:48;6.90;99.90
68813;DHT22;55808;48.112;11.552;2023-03-31T17:22:14;7.00;99.90
68813;DHT22;55808;48.112;11.552;2023-03-31T17:24:40;6.90;99.90
68813;DHT22;55808;48.112;11.552;2023-03-31T17:27:06;7.00;99.90
68813;DHT22;55808;48.112;11.552;2023-03-31T17:29:31;7.00;99.90
68813;DHT22;55808;48.112;11.552;2023-03-31T17:31:57;7.00;99.90
68813;DHT22;55808;48.112;11.552;2023-03-31T17:34:22;6.90;99.90
68813;DHT22;55808;48.112;11.552;2023-03-31T17:36:48;6.90;99.90
68813;DHT22;55808;48.112;11.552;2023-03-31T17:39:15;6.90;99.90
68813;DHT22;55808;48.112;11.552;2023-03-31T17:41:41;6.90;99.90
68813;DHT22;55808;48.112;11.552;2023-03-31T17:44:06;6.80;99.90
68813;DHT22;55808;48.112;11.552;2023-03-31T17:46:33;6.80;99.90
68813;DHT22;55808;48.112;11.552;2023-03-31T17:48:58;6.80;99.90
68813;DHT22;55808;48.112;11.552;2023-03-31T17:51:25;6.80;99.90
68813;DHT22;55808;48.112;11.552;2023-03-31T17:53:51;6.80;99.90
68813;DHT22;55808;48.112;11.552;2023-03-31T17:56:17;6.90;99.90
68813;DHT22;55808;48.112;11.552;2023-03-31T17:58:43;6.80;99.90
68813;DHT22;55808;48.112;11.552;2023-03-31T18:01:09;6.90;99.90
68813;DHT22;55808;48.112;11.552;2023-03-31T18:03:34;6.90;99.90
68813;DHT22;55808;48.112;11.552;2023-03-31T18:06:08;6.90;99.90
68813;DHT22;55808;48.112;11.552;2023-03-31T18:08:35;7.00;99.90
68813;DHT22;55808;48.112;11.552;2023-03-31T18:11:01;7.10;99.90
68813;DHT22;55808;48.112;11.552;2023-03-31T18:13:29;7.10;99.90
68813;DHT22;55808;48.112;11.552;2023-03-31T18:15:55;7.20;99.90
68813;DHT22;55808;48.112;11.552;2023-03-31T18:18:20;7.10;99.90